John Wayne Airport-Orange County Airport
KSNA : rendu visible

Aérodrome :











RETROUVEZ-NOUS SUR...

 
LOGIN :

S'inscrire | Disclaimer

   EN    FR    IT 

 









Légende :    VFR   VFR Marginal   IFR   IFR Intensif   IFR Très Intensif
Visi : 
Plafond : 
>= 8 km
>= 3000ft
5 à 8 km
1000 à 3000 ft
1500m à 5 km
500 à 1000 ft
800 à 1500m
200 à 500 ft
< 800m
< 200 ft
Symboles :   Orages  Brouillard  Fortes neiges  Fortes précipitations  Vent > 20 kt






- Altitude de l'aérodrome : 56 ft
- Code IATA : SNA


KSNA - John Wayne -Orange County

DERNIER METAR :
  • 180753Z AUTO 06003KT 10SM CLR 11/06 A3021 RMK AO2 SLP229 T01110061 401720106

METARs EXPIRÉS :
  • 180653Z 06004KT 10SM FEW250 12/07 A3021 RMK AO2 SLP231 LAST T01170067
  • 180553Z 00000KT 10SM CLR 12/07 A3021 RMK AO2 SLP231 T01220072 10161 20122 53003

TAF KSNA
Valide du 18 à 06h jusqu'au 19 à 06h UTC


180520Z 1806/1906 VRB03KT P6SM SCT250
FM182100 27005KT P6SM BKN250
FM190100 VRB03KT P6SM BKN250



MET'MAP, la Météo Aéronautique d'un coup d'oeil ! - Copyright ORBIFLY Décembre 2007 - Disclaimer

ORBIFLY MET'MAP TEAM :

Programmation & Développement : Alexandra Zaïnal
Sur une idée originale de : Baudouin d'Aumeries
Assistance à la programmation : Marc-Olivier Méhu
Soutien technique & logistique : Manuel Goepfert

Contact : metmap@orbifly.com




SOURCES & CREDITS :

   NOAA       Earth
Advisory